sensor_id;sensor_type;location;lat;lon;timestamp;P1;durP1;ratioP1;P2;durP2;ratioP2
29416;SDS011;28421;51.030;4.006;2022-12-05T06:02:36;46.55;;;21.42;;
29416;SDS011;28421;51.030;4.006;2022-12-05T06:05:02;50.83;;;21.52;;
29416;SDS011;28421;51.030;4.006;2022-12-05T06:07:28;44.67;;;19.77;;
29416;SDS011;28421;51.030;4.006;2022-12-05T06:09:53;44.30;;;21.23;;
29416;SDS011;28421;51.030;4.006;2022-12-05T06:12:19;42.17;;;20.20;;
29416;SDS011;28421;51.030;4.006;2022-12-05T06:14:46;41.67;;;21.30;;
29416;SDS011;28421;51.030;4.006;2022-12-05T06:17:12;50.70;;;20.60;;
29416;SDS011;28421;51.030;4.006;2022-12-05T06:19:38;45.13;;;19.50;;
29416;SDS011;28421;51.030;4.006;2022-12-05T06:22:03;45.72;;;22.27;;
29416;SDS011;28421;51.030;4.006;2022-12-05T06:24:29;43.15;;;22.58;;
29416;SDS011;28421;51.030;4.006;2022-12-05T06:26:54;50.58;;;21.40;;
29416;SDS011;28421;51.030;4.006;2022-12-05T06:29:19;48.45;;;20.75;;
29416;SDS011;28421;51.030;4.006;2022-12-05T06:31:45;50.58;;;23.30;;
29416;SDS011;28421;51.030;4.006;2022-12-05T06:34:10;44.40;;;21.23;;
29416;SDS011;28421;51.030;4.006;2022-12-05T06:36:35;44.08;;;21.88;;
29416;SDS011;28421;51.030;4.006;2022-12-05T06:39:01;42.33;;;20.80;;
29416;SDS011;28421;51.030;4.006;2022-12-05T06:41:26;52.17;;;21.20;;
29416;SDS011;28421;51.030;4.006;2022-12-05T06:43:52;46.22;;;21.65;;
29416;SDS011;28421;51.030;4.006;2022-12-05T06:46:18;41.30;;;21.13;;
29416;SDS011;28421;51.030;4.006;2022-12-05T06:48:44;40.72;;;21.10;;
29416;SDS011;28421;51.030;4.006;2022-12-05T06:51:10;49.67;;;23.25;;
29416;SDS011;28421;51.030;4.006;2022-12-05T06:53:37;42.45;;;21.70;;
29416;SDS011;28421;51.030;4.006;2022-12-05T06:56:04;41.72;;;20.27;;
29416;SDS011;28421;51.030;4.006;2022-12-05T06:58:32;45.03;;;20.67;;
29416;SDS011;28421;51.030;4.006;2022-12-05T07:00:57;48.03;;;20.67;;
29416;SDS011;28421;51.030;4.006;2022-12-05T07:03:41;40.15;;;19.40;;
29416;SDS011;28421;51.030;4.006;2022-12-05T07:06:08;41.17;;;22.13;;
29416;SDS011;28421;51.030;4.006;2022-12-05T07:08:33;44.55;;;20.73;;
29416;SDS011;28421;51.030;4.006;2022-12-05T07:10:59;43.00;;;21.70;;
29416;SDS011;28421;51.030;4.006;2022-12-05T07:13:25;44.80;;;20.58;;
29416;SDS011;28421;51.030;4.006;2022-12-05T07:15:51;48.33;;;22.02;;
29416;SDS011;28421;51.030;4.006;2022-12-05T07:18:16;37.30;;;19.63;;
29416;SDS011;28421;51.030;4.006;2022-12-05T07:20:42;45.65;;;22.60;;
29416;SDS011;28421;51.030;4.006;2022-12-05T07:23:08;46.08;;;21.00;;
29416;SDS011;28421;51.030;4.006;2022-12-05T07:25:41;42.88;;;20.50;;
29416;SDS011;28421;51.030;4.006;2022-12-05T07:28:06;43.45;;;21.38;;
29416;SDS011;28421;51.030;4.006;2022-12-05T07:30:32;36.88;;;19.60;;
29416;SDS011;28421;51.030;4.006;2022-12-05T07:32:58;47.55;;;22.75;;
29416;SDS011;28421;51.030;4.006;2022-12-05T07:35:24;51.60;;;22.75;;
29416;SDS011;28421;51.030;4.006;2022-12-05T07:37:49;43.38;;;21.38;;
29416;SDS011;28421;51.030;4.006;2022-12-05T07:40:14;47.70;;;20.73;;
29416;SDS011;28421;51.030;4.006;2022-12-05T07:42:40;47.28;;;21.95;;
29416;SDS011;28421;51.030;4.006;2022-12-05T07:45:05;42.60;;;21.35;;
29416;SDS011;28421;51.030;4.006;2022-12-05T07:47:31;46.35;;;21.23;;
29416;SDS011;28421;51.030;4.006;2022-12-05T07:49:57;44.13;;;20.80;;
29416;SDS011;28421;51.030;4.006;2022-12-05T07:52:22;45.60;;;22.15;;
29416;SDS011;28421;51.030;4.006;2022-12-05T07:54:48;48.40;;;23.75;;
29416;SDS011;28421;51.030;4.006;2022-12-05T07:57:13;47.45;;;22.65;;
29416;SDS011;28421;51.030;4.006;2022-12-05T07:59:39;44.33;;;21.55;;
29416;SDS011;28421;51.030;4.006;2022-12-05T08:02:04;46.83;;;21.60;;
29416;SDS011;28421;51.030;4.006;2022-12-05T08:04:30;48.17;;;24.35;;
29416;SDS011;28421;51.030;4.006;2022-12-05T08:06:55;37.65;;;20.92;;
29416;SDS011;28421;51.030;4.006;2022-12-05T08:09:21;47.47;;;21.45;;
29416;SDS011;28421;51.030;4.006;2022-12-05T08:11:46;44.13;;;22.25;;
29416;SDS011;28421;51.030;4.006;2022-12-05T08:14:11;53.33;;;21.23;;
29416;SDS011;28421;51.030;4.006;2022-12-05T08:16:37;41.50;;;21.25;;
29416;SDS011;28421;51.030;4.006;2022-12-05T08:19:03;39.83;;;21.15;;
29416;SDS011;28421;51.030;4.006;2022-12-05T08:21:30;40.20;;;21.73;;
29416;SDS011;28421;51.030;4.006;2022-12-05T08:23:56;43.17;;;21.42;;
29416;SDS011;28421;51.030;4.006;2022-12-05T08:26:23;51.13;;;22.92;;
29416;SDS011;28421;51.030;4.006;2022-12-05T08:28:52;49.72;;;23.75;;
29416;SDS011;28421;51.030;4.006;2022-12-05T08:31:20;46.92;;;21.40;;
29416;SDS011;28421;51.030;4.006;2022-12-05T08:33:47;46.38;;;24.40;;
29416;SDS011;28421;51.030;4.006;2022-12-05T08:36:13;43.72;;;23.02;;
29416;SDS011;28421;51.030;4.006;2022-12-05T08:38:39;51.72;;;25.20;;
29416;SDS011;28421;51.030;4.006;2022-12-05T08:41:07;46.38;;;23.08;;
29416;SDS011;28421;51.030;4.006;2022-12-05T08:43:33;45.50;;;22.23;;
29416;SDS011;28421;51.030;4.006;2022-12-05T08:45:59;49.20;;;24.80;;
29416;SDS011;28421;51.030;4.006;2022-12-05T08:48:25;57.75;;;24.77;;
29416;SDS011;28421;51.030;4.006;2022-12-05T08:50:52;46.00;;;22.25;;
29416;SDS011;28421;51.030;4.006;2022-12-05T08:53:18;47.97;;;23.42;;
29416;SDS011;28421;51.030;4.006;2022-12-05T08:55:43;45.45;;;22.25;;
29416;SDS011;28421;51.030;4.006;2022-12-05T08:58:11;47.85;;;23.10;;
29416;SDS011;28421;51.030;4.006;2022-12-05T09:00:37;65.35;;;26.75;;
29416;SDS011;28421;51.030;4.006;2022-12-05T09:03:03;54.60;;;26.40;;
29416;SDS011;28421;51.030;4.006;2022-12-05T09:05:28;56.05;;;26.98;;
29416;SDS011;28421;51.030;4.006;2022-12-05T09:07:54;57.75;;;25.83;;
29416;SDS011;28421;51.030;4.006;2022-12-05T09:10:19;52.20;;;27.27;;
29416;SDS011;28421;51.030;4.006;2022-12-05T09:12:45;57.08;;;26.38;;
29416;SDS011;28421;51.030;4.006;2022-12-05T09:15:11;49.08;;;23.75;;
29416;SDS011;28421;51.030;4.006;2022-12-05T09:17:37;50.28;;;25.50;;
29416;SDS011;28421;51.030;4.006;2022-12-05T09:20:03;49.53;;;24.95;;
29416;SDS011;28421;51.030;4.006;2022-12-05T09:22:31;51.53;;;24.95;;
29416;SDS011;28421;51.030;4.006;2022-12-05T09:24:57;48.05;;;24.27;;
29416;SDS011;28421;51.030;4.006;2022-12-05T09:27:29;43.20;;;21.75;;
29416;SDS011;28421;51.030;4.006;2022-12-05T09:29:54;47.83;;;22.95;;
29416;SDS011;28421;51.030;4.006;2022-12-05T09:32:19;44.55;;;22.70;;
29416;SDS011;28421;51.030;4.006;2022-12-05T09:34:45;42.75;;;21.50;;
29416;SDS011;28421;51.030;4.006;2022-12-05T09:37:10;43.38;;;21.55;;
29416;SDS011;28421;51.030;4.006;2022-12-05T09:39:36;42.00;;;20.73;;
29416;SDS011;28421;51.030;4.006;2022-12-05T09:50:20;40.83;;;20.52;;
29416;SDS011;28421;51.030;4.006;2022-12-05T09:58:18;45.67;;;22.20;;
29416;SDS011;28421;51.030;4.006;2022-12-05T10:00:53;42.03;;;21.33;;
29416;SDS011;28421;51.030;4.006;2022-12-05T10:03:40;42.42;;;21.25;;
29416;SDS011;28421;51.030;4.006;2022-12-05T10:17:22;41.95;;;20.60;;
29416;SDS011;28421;51.030;4.006;2022-12-05T10:19:55;49.22;;;23.83;;
29416;SDS011;28421;51.030;4.006;2022-12-05T10:22:24;37.20;;;19.30;;
29416;SDS011;28421;51.030;4.006;2022-12-05T10:25:00;69.22;;;27.63;;
29416;SDS011;28421;51.030;4.006;2022-12-05T10:27:32;44.92;;;23.48;;
29416;SDS011;28421;51.030;4.006;2022-12-05T10:32:39;34.90;;;18.52;;
29416;SDS011;28421;51.030;4.006;2022-12-05T10:37:49;42.20;;;19.50;;
29416;SDS011;28421;51.030;4.006;2022-12-05T10:40:18;40.20;;;19.27;;
29416;SDS011;28421;51.030;4.006;2022-12-05T10:42:44;42.47;;;20.73;;
29416;SDS011;28421;51.030;4.006;2022-12-05T10:45:21;41.25;;;19.75;;
29416;SDS011;28421;51.030;4.006;2022-12-05T10:47:48;35.00;;;19.27;;
29416;SDS011;28421;51.030;4.006;2022-12-05T10:50:21;40.35;;;21.80;;
29416;SDS011;28421;51.030;4.006;2022-12-05T10:52:56;44.88;;;19.75;;
29416;SDS011;28421;51.030;4.006;2022-12-05T10:55:24;37.97;;;20.23;;
29416;SDS011;28421;51.030;4.006;2022-12-05T10:58:07;42.55;;;20.70;;
29416;SDS011;28421;51.030;4.006;2022-12-05T11:00:33;34.83;;;19.13;;
29416;SDS011;28421;51.030;4.006;2022-12-05T11:02:59;42.33;;;24.15;;
29416;SDS011;28421;51.030;4.006;2022-12-05T11:05:29;35.67;;;20.15;;
29416;SDS011;28421;51.030;4.006;2022-12-05T11:07:56;39.65;;;21.75;;
29416;SDS011;28421;51.030;4.006;2022-12-05T11:10:35;41.58;;;22.88;;
29416;SDS011;28421;51.030;4.006;2022-12-05T11:13:23;39.00;;;20.63;;
29416;SDS011;28421;51.030;4.006;2022-12-05T11:15:49;38.95;;;19.83;;
29416;SDS011;28421;51.030;4.006;2022-12-05T11:20:49;44.40;;;21.20;;
29416;SDS011;28421;51.030;4.006;2022-12-05T11:23:19;40.72;;;21.58;;
29416;SDS011;28421;51.030;4.006;2022-12-05T11:25:48;37.25;;;22.10;;
29416;SDS011;28421;51.030;4.006;2022-12-05T11:33:24;42.97;;;21.45;;
29416;SDS011;28421;51.030;4.006;2022-12-05T11:35:53;43.28;;;22.48;;
29416;SDS011;28421;51.030;4.006;2022-12-05T11:38:23;40.58;;;21.42;;
29416;SDS011;28421;51.030;4.006;2022-12-05T11:41:04;42.72;;;23.13;;
29416;SDS011;28421;51.030;4.006;2022-12-05T11:46:47;43.70;;;23.65;;
29416;SDS011;28421;51.030;4.006;2022-12-05T12:00:37;40.05;;;21.48;;
29416;SDS011;28421;51.030;4.006;2022-12-05T12:02:59;41.92;;;23.88;;
29416;SDS011;28421;51.030;4.006;2022-12-05T12:08:47;41.50;;;21.58;;
29416;SDS011;28421;51.030;4.006;2022-12-05T12:14:36;41.88;;;20.63;;
29416;SDS011;28421;51.030;4.006;2022-12-05T12:17:18;44.70;;;22.70;;
29416;SDS011;28421;51.030;4.006;2022-12-05T12:19:54;35.50;;;18.83;;
29416;SDS011;28421;51.030;4.006;2022-12-05T12:22:54;32.63;;;18.40;;
29416;SDS011;28421;51.030;4.006;2022-12-05T12:33:35;39.30;;;21.05;;
29416;SDS011;28421;51.030;4.006;2022-12-05T12:41:31;35.80;;;21.20;;
29416;SDS011;28421;51.030;4.006;2022-12-05T12:44:19;38.08;;;20.70;;
29416;SDS011;28421;51.030;4.006;2022-12-05T12:47:01;31.95;;;18.65;;
29416;SDS011;28421;51.030;4.006;2022-12-05T12:52:23;38.58;;;18.52;;
29416;SDS011;28421;51.030;4.006;2022-12-05T12:55:13;35.13;;;17.70;;
29416;SDS011;28421;51.030;4.006;2022-12-05T12:58:03;36.63;;;18.38;;
29416;SDS011;28421;51.030;4.006;2022-12-05T13:05:47;32.97;;;17.20;;
29416;SDS011;28421;51.030;4.006;2022-12-05T13:08:20;28.10;;;16.45;;
29416;SDS011;28421;51.030;4.006;2022-12-05T13:10:50;33.95;;;17.67;;
29416;SDS011;28421;51.030;4.006;2022-12-05T13:13:21;31.42;;;17.98;;
29416;SDS011;28421;51.030;4.006;2022-12-05T13:15:54;34.42;;;18.05;;
29416;SDS011;28421;51.030;4.006;2022-12-05T13:18:23;41.33;;;19.05;;
29416;SDS011;28421;51.030;4.006;2022-12-05T13:20:50;35.20;;;19.80;;
29416;SDS011;28421;51.030;4.006;2022-12-05T13:23:20;41.58;;;20.45;;
29416;SDS011;28421;51.030;4.006;2022-12-05T13:25:49;39.50;;;21.95;;
29416;SDS011;28421;51.030;4.006;2022-12-05T13:28:38;33.55;;;18.65;;
29416;SDS011;28421;51.030;4.006;2022-12-05T13:31:42;35.40;;;18.73;;
29416;SDS011;28421;51.030;4.006;2022-12-05T13:34:43;34.20;;;19.13;;
29416;SDS011;28421;51.030;4.006;2022-12-05T13:37:11;32.70;;;17.48;;
29416;SDS011;28421;51.030;4.006;2022-12-05T13:40:05;37.40;;;18.92;;
29416;SDS011;28421;51.030;4.006;2022-12-05T13:43:01;33.20;;;18.80;;
29416;SDS011;28421;51.030;4.006;2022-12-05T13:45:28;34.38;;;17.60;;
29416;SDS011;28421;51.030;4.006;2022-12-05T13:50:28;34.75;;;19.85;;
29416;SDS011;28421;51.030;4.006;2022-12-05T13:58:42;33.10;;;19.52;;
29416;SDS011;28421;51.030;4.006;2022-12-05T14:17:24;33.47;;;19.30;;
29416;SDS011;28421;51.030;4.006;2022-12-05T14:22:42;38.70;;;19.75;;
29416;SDS011;28421;51.030;4.006;2022-12-05T14:28:20;39.58;;;20.77;;
29416;SDS011;28421;51.030;4.006;2022-12-05T14:36:51;42.72;;;22.73;;
29416;SDS011;28421;51.030;4.006;2022-12-05T14:40:15;39.17;;;21.20;;
29416;SDS011;28421;51.030;4.006;2022-12-05T14:42:28;39.65;;;20.88;;
29416;SDS011;28421;51.030;4.006;2022-12-05T14:47:51;39.03;;;20.38;;
29416;SDS011;28421;51.030;4.006;2022-12-05T14:55:56;30.42;;;17.42;;
29416;SDS011;28421;51.030;4.006;2022-12-05T15:01:06;36.97;;;20.73;;
29416;SDS011;28421;51.030;4.006;2022-12-05T15:03:39;35.55;;;19.73;;
29416;SDS011;28421;51.030;4.006;2022-12-05T15:06:18;37.53;;;20.30;;
29416;SDS011;28421;51.030;4.006;2022-12-05T15:08:48;39.22;;;20.75;;
29416;SDS011;28421;51.030;4.006;2022-12-05T15:11:17;37.40;;;18.55;;
29416;SDS011;28421;51.030;4.006;2022-12-05T15:13:59;28.10;;;16.35;;
29416;SDS011;28421;51.030;4.006;2022-12-05T15:16:25;32.28;;;18.48;;
29416;SDS011;28421;51.030;4.006;2022-12-05T15:18:55;31.00;;;17.90;;
29416;SDS011;28421;51.030;4.006;2022-12-05T15:24:21;32.23;;;17.67;;
29416;SDS011;28421;51.030;4.006;2022-12-05T15:26:53;35.47;;;17.30;;
29416;SDS011;28421;51.030;4.006;2022-12-05T15:29:24;35.00;;;17.27;;
29416;SDS011;28421;51.030;4.006;2022-12-05T15:31:52;28.08;;;16.23;;
29416;SDS011;28421;51.030;4.006;2022-12-05T15:37:23;27.58;;;16.58;;
29416;SDS011;28421;51.030;4.006;2022-12-05T15:40:00;35.28;;;16.55;;
29416;SDS011;28421;51.030;4.006;2022-12-05T15:42:50;29.73;;;16.38;;
29416;SDS011;28421;51.030;4.006;2022-12-05T15:47:50;33.53;;;17.50;;
29416;SDS011;28421;51.030;4.006;2022-12-05T15:55:55;27.58;;;15.55;;
29416;SDS011;28421;51.030;4.006;2022-12-05T15:58:33;27.30;;;16.85;;
29416;SDS011;28421;51.030;4.006;2022-12-05T16:01:09;22.65;;;14.50;;
29416;SDS011;28421;51.030;4.006;2022-12-05T16:03:44;26.25;;;15.80;;
29416;SDS011;28421;51.030;4.006;2022-12-05T16:06:33;31.33;;;14.77;;
29416;SDS011;28421;51.030;4.006;2022-12-05T16:09:04;25.63;;;15.38;;
29416;SDS011;28421;51.030;4.006;2022-12-05T16:11:32;28.42;;;15.15;;
29416;SDS011;28421;51.030;4.006;2022-12-05T16:14:00;23.17;;;14.88;;
29416;SDS011;28421;51.030;4.006;2022-12-05T16:16:32;26.45;;;15.60;;
29416;SDS011;28421;51.030;4.006;2022-12-05T16:19:33;25.60;;;15.07;;
29416;SDS011;28421;51.030;4.006;2022-12-05T16:22:05;25.52;;;14.07;;
29416;SDS011;28421;51.030;4.006;2022-12-05T16:24:31;23.40;;;13.63;;
29416;SDS011;28421;51.030;4.006;2022-12-05T16:29:40;23.55;;;14.02;;
29416;SDS011;28421;51.030;4.006;2022-12-05T16:32:13;28.35;;;16.00;;
29416;SDS011;28421;51.030;4.006;2022-12-05T16:34:44;22.70;;;13.05;;
29416;SDS011;28421;51.030;4.006;2022-12-05T16:37:16;24.48;;;14.98;;
29416;SDS011;28421;51.030;4.006;2022-12-05T16:39:46;22.35;;;13.82;;
29416;SDS011;28421;51.030;4.006;2022-12-05T16:42:24;25.95;;;16.08;;
29416;SDS011;28421;51.030;4.006;2022-12-05T16:45:00;40.55;;;21.70;;
29416;SDS011;28421;51.030;4.006;2022-12-05T16:50:50;32.33;;;19.52;;
29416;SDS011;28421;51.030;4.006;2022-12-05T16:53:21;22.42;;;14.93;;
29416;SDS011;28421;51.030;4.006;2022-12-05T16:55:56;23.63;;;15.13;;
29416;SDS011;28421;51.030;4.006;2022-12-05T16:58:23;25.95;;;14.98;;
29416;SDS011;28421;51.030;4.006;2022-12-05T17:00:51;24.95;;;14.93;;
29416;SDS011;28421;51.030;4.006;2022-12-05T17:03:24;22.40;;;13.45;;
29416;SDS011;28421;51.030;4.006;2022-12-05T17:05:51;26.35;;;13.30;;
29416;SDS011;28421;51.030;4.006;2022-12-05T17:08:17;26.08;;;15.40;;
29416;SDS011;28421;51.030;4.006;2022-12-05T17:10:42;25.83;;;13.93;;
29416;SDS011;28421;51.030;4.006;2022-12-05T17:13:08;22.92;;;14.32;;
29416;SDS011;28421;51.030;4.006;2022-12-05T17:15:38;22.70;;;13.98;;
29416;SDS011;28421;51.030;4.006;2022-12-05T17:18:06;23.35;;;12.43;;
29416;SDS011;28421;51.030;4.006;2022-12-05T17:20:37;23.95;;;13.88;;
29416;SDS011;28421;51.030;4.006;2022-12-05T17:23:05;22.42;;;12.30;;
29416;SDS011;28421;51.030;4.006;2022-12-05T17:25:31;27.13;;;13.15;;
29416;SDS011;28421;51.030;4.006;2022-12-05T17:28:01;24.33;;;13.75;;
29416;SDS011;28421;51.030;4.006;2022-12-05T17:30:26;23.65;;;12.98;;
29416;SDS011;28421;51.030;4.006;2022-12-05T17:32:52;24.05;;;13.20;;
29416;SDS011;28421;51.030;4.006;2022-12-05T17:35:18;20.48;;;10.77;;
29416;SDS011;28421;51.030;4.006;2022-12-05T17:37:46;23.42;;;14.02;;
29416;SDS011;28421;51.030;4.006;2022-12-05T17:40:12;22.27;;;13.52;;
29416;SDS011;28421;51.030;4.006;2022-12-05T17:42:38;27.50;;;15.20;;
29416;SDS011;28421;51.030;4.006;2022-12-05T17:45:04;25.83;;;15.13;;
29416;SDS011;28421;51.030;4.006;2022-12-05T17:47:33;20.80;;;13.07;;
29416;SDS011;28421;51.030;4.006;2022-12-05T17:49:59;23.20;;;13.82;;
29416;SDS011;28421;51.030;4.006;2022-12-05T17:52:26;23.23;;;13.25;;
29416;SDS011;28421;51.030;4.006;2022-12-05T17:54:52;18.48;;;12.48;;
29416;SDS011;28421;51.030;4.006;2022-12-05T17:57:18;18.77;;;12.73;;
29416;SDS011;28421;51.030;4.006;2022-12-05T17:59:43;20.42;;;12.15;;
29416;SDS011;28421;51.030;4.006;2022-12-05T18:02:09;19.42;;;10.98;;
29416;SDS011;28421;51.030;4.006;2022-12-05T18:04:35;15.32;;;10.50;;
29416;SDS011;28421;51.030;4.006;2022-12-05T18:07:01;15.63;;;9.75;;
29416;SDS011;28421;51.030;4.006;2022-12-05T18:09:27;15.82;;;9.82;;
29416;SDS011;28421;51.030;4.006;2022-12-05T18:11:52;16.90;;;9.13;;
29416;SDS011;28421;51.030;4.006;2022-12-05T18:14:17;16.55;;;9.85;;
29416;SDS011;28421;51.030;4.006;2022-12-05T18:16:43;21.55;;;10.63;;
29416;SDS011;28421;51.030;4.006;2022-12-05T18:19:08;13.80;;;8.60;;
29416;SDS011;28421;51.030;4.006;2022-12-05T18:21:34;16.25;;;9.27;;
29416;SDS011;28421;51.030;4.006;2022-12-05T18:23:59;14.32;;;8.95;;
29416;SDS011;28421;51.030;4.006;2022-12-05T18:26:25;48.58;;;31.10;;
29416;SDS011;28421;51.030;4.006;2022-12-05T18:28:50;27.67;;;18.50;;
29416;SDS011;28421;51.030;4.006;2022-12-05T18:31:18;87.43;;;45.53;;
29416;SDS011;28421;51.030;4.006;2022-12-05T18:33:44;82.53;;;39.85;;
29416;SDS011;28421;51.030;4.006;2022-12-05T18:36:11;23.23;;;15.25;;
29416;SDS011;28421;51.030;4.006;2022-12-05T18:38:39;28.33;;;17.52;;
29416;SDS011;28421;51.030;4.006;2022-12-05T18:41:07;29.33;;;19.75;;
29416;SDS011;28421;51.030;4.006;2022-12-05T18:43:33;17.17;;;11.38;;
29416;SDS011;28421;51.030;4.006;2022-12-05T18:46:00;19.58;;;13.70;;
29416;SDS011;28421;51.030;4.006;2022-12-05T18:48:28;40.25;;;25.35;;
29416;SDS011;28421;51.030;4.006;2022-12-05T18:50:55;31.75;;;20.38;;
29416;SDS011;28421;51.030;4.006;2022-12-05T18:53:30;26.63;;;16.98;;
29416;SDS011;28421;51.030;4.006;2022-12-05T18:56:00;21.63;;;12.13;;
29416;SDS011;28421;51.030;4.006;2022-12-05T18:58:30;14.98;;;10.32;;
29416;SDS011;28421;51.030;4.006;2022-12-05T19:01:09;15.70;;;9.60;;
29416;SDS011;28421;51.030;4.006;2022-12-05T19:03:36;11.45;;;9.43;;
29416;SDS011;28421;51.030;4.006;2022-12-05T19:06:13;11.63;;;8.90;;
29416;SDS011;28421;51.030;4.006;2022-12-05T19:08:40;16.55;;;9.75;;
29416;SDS011;28421;51.030;4.006;2022-12-05T19:11:08;14.57;;;8.00;;
29416;SDS011;28421;51.030;4.006;2022-12-05T19:13:35;14.57;;;8.57;;
29416;SDS011;28421;51.030;4.006;2022-12-05T19:16:01;17.65;;;9.60;;
29416;SDS011;28421;51.030;4.006;2022-12-05T19:18:31;12.77;;;8.95;;
29416;SDS011;28421;51.030;4.006;2022-12-05T19:20:56;14.80;;;9.77;;
29416;SDS011;28421;51.030;4.006;2022-12-05T19:23:22;15.90;;;8.55;;
29416;SDS011;28421;51.030;4.006;2022-12-05T19:25:48;13.93;;;10.25;;
29416;SDS011;28421;51.030;4.006;2022-12-05T19:28:13;21.60;;;12.65;;
29416;SDS011;28421;51.030;4.006;2022-12-05T19:30:38;28.00;;;23.30;;
29416;SDS011;28421;51.030;4.006;2022-12-05T19:33:04;14.55;;;11.52;;
29416;SDS011;28421;51.030;4.006;2022-12-05T19:35:30;14.30;;;10.32;;
29416;SDS011;28421;51.030;4.006;2022-12-05T19:37:55;15.00;;;8.07;;
29416;SDS011;28421;51.030;4.006;2022-12-05T19:40:20;13.23;;;8.98;;
29416;SDS011;28421;51.030;4.006;2022-12-05T19:42:46;13.43;;;8.82;;
29416;SDS011;28421;51.030;4.006;2022-12-05T19:45:11;15.95;;;8.65;;
29416;SDS011;28421;51.030;4.006;2022-12-05T19:47:36;18.65;;;9.00;;
29416;SDS011;28421;51.030;4.006;2022-12-05T19:50:02;16.98;;;8.02;;
29416;SDS011;28421;51.030;4.006;2022-12-05T19:52:28;18.05;;;8.15;;
29416;SDS011;28421;51.030;4.006;2022-12-05T19:54:54;14.80;;;9.40;;
29416;SDS011;28421;51.030;4.006;2022-12-05T19:57:19;15.85;;;9.75;;
29416;SDS011;28421;51.030;4.006;2022-12-05T19:59:46;10.55;;;7.78;;
29416;SDS011;28421;51.030;4.006;2022-12-05T20:02:12;14.07;;;9.40;;
29416;SDS011;28421;51.030;4.006;2022-12-05T20:04:37;14.10;;;8.80;;
29416;SDS011;28421;51.030;4.006;2022-12-05T20:07:02;11.75;;;7.88;;
29416;SDS011;28421;51.030;4.006;2022-12-05T20:09:28;14.45;;;8.73;;
29416;SDS011;28421;51.030;4.006;2022-12-05T20:11:53;18.42;;;9.10;;
29416;SDS011;28421;51.030;4.006;2022-12-05T20:14:20;11.05;;;7.45;;
29416;SDS011;28421;51.030;4.006;2022-12-05T20:16:47;13.10;;;9.45;;
29416;SDS011;28421;51.030;4.006;2022-12-05T20:19:12;13.85;;;8.90;;
29416;SDS011;28421;51.030;4.006;2022-12-05T20:21:38;15.57;;;9.85;;
29416;SDS011;28421;51.030;4.006;2022-12-05T20:24:04;15.30;;;9.57;;
29416;SDS011;28421;51.030;4.006;2022-12-05T20:26:31;18.08;;;10.35;;
29416;SDS011;28421;51.030;4.006;2022-12-05T20:28:59;14.60;;;8.60;;
29416;SDS011;28421;51.030;4.006;2022-12-05T20:31:26;14.82;;;7.78;;
29416;SDS011;28421;51.030;4.006;2022-12-05T20:33:54;12.40;;;8.77;;
29416;SDS011;28421;51.030;4.006;2022-12-05T20:36:21;14.32;;;7.82;;
29416;SDS011;28421;51.030;4.006;2022-12-05T20:38:48;14.93;;;7.30;;
29416;SDS011;28421;51.030;4.006;2022-12-05T20:41:19;10.70;;;7.43;;
29416;SDS011;28421;51.030;4.006;2022-12-05T20:43:45;14.32;;;8.45;;
29416;SDS011;28421;51.030;4.006;2022-12-05T20:48:41;12.32;;;9.73;;
29416;SDS011;28421;51.030;4.006;2022-12-05T20:51:08;14.07;;;8.85;;
29416;SDS011;28421;51.030;4.006;2022-12-05T20:53:36;12.40;;;8.18;;
29416;SDS011;28421;51.030;4.006;2022-12-05T20:56:04;13.38;;;7.90;;
29416;SDS011;28421;51.030;4.006;2022-12-05T20:58:30;16.25;;;8.38;;
29416;SDS011;28421;51.030;4.006;2022-12-05T21:00:57;15.68;;;8.55;;
29416;SDS011;28421;51.030;4.006;2022-12-05T21:03:26;19.33;;;8.60;;
29416;SDS011;28421;51.030;4.006;2022-12-05T21:05:52;13.80;;;9.02;;
29416;SDS011;28421;51.030;4.006;2022-12-05T21:08:17;15.02;;;9.63;;
29416;SDS011;28421;51.030;4.006;2022-12-05T21:10:43;16.90;;;8.32;;
29416;SDS011;28421;51.030;4.006;2022-12-05T21:13:09;14.63;;;7.45;;
29416;SDS011;28421;51.030;4.006;2022-12-05T21:15:35;16.05;;;8.02;;
29416;SDS011;28421;51.030;4.006;2022-12-05T21:18:00;14.05;;;8.07;;
29416;SDS011;28421;51.030;4.006;2022-12-05T21:20:26;14.30;;;7.95;;
29416;SDS011;28421;51.030;4.006;2022-12-05T21:22:51;10.15;;;7.03;;
29416;SDS011;28421;51.030;4.006;2022-12-05T21:25:17;14.27;;;7.75;;
29416;SDS011;28421;51.030;4.006;2022-12-05T21:27:42;11.25;;;7.50;;
29416;SDS011;28421;51.030;4.006;2022-12-05T21:30:08;15.00;;;8.00;;
29416;SDS011;28421;51.030;4.006;2022-12-05T21:32:33;11.57;;;8.02;;
29416;SDS011;28421;51.030;4.006;2022-12-05T21:34:59;13.23;;;7.68;;
29416;SDS011;28421;51.030;4.006;2022-12-05T21:37:24;12.05;;;6.95;;
29416;SDS011;28421;51.030;4.006;2022-12-05T21:39:50;17.25;;;8.30;;
29416;SDS011;28421;51.030;4.006;2022-12-05T21:42:15;14.85;;;7.78;;
29416;SDS011;28421;51.030;4.006;2022-12-05T21:44:40;17.08;;;8.48;;
29416;SDS011;28421;51.030;4.006;2022-12-05T21:47:06;11.63;;;6.70;;
29416;SDS011;28421;51.030;4.006;2022-12-05T21:49:31;15.85;;;7.13;;
29416;SDS011;28421;51.030;4.006;2022-12-05T21:51:56;16.30;;;8.43;;
29416;SDS011;28421;51.030;4.006;2022-12-05T21:54:22;16.95;;;8.45;;
29416;SDS011;28421;51.030;4.006;2022-12-05T21:56:47;11.15;;;7.57;;
29416;SDS011;28421;51.030;4.006;2022-12-05T21:59:13;12.85;;;8.30;;
